createdAt,value
2018-11-07T00:01:58.991Z,100094.67
2018-11-07T00:04:27.424Z,100096.38
2018-11-07T00:06:55.866Z,100094.67
2018-11-07T00:09:24.276Z,100089.13
2018-11-07T00:11:52.836Z,100095.95
2018-11-07T00:14:21.289Z,100092.12
2018-11-07T00:16:49.717Z,100100.64
2018-11-07T00:19:18.192Z,100100.64
2018-11-07T00:21:46.666Z,100112.19
2018-11-07T00:24:15.144Z,100110.93
2018-11-07T00:26:43.567Z,100109.64
2018-11-07T00:29:12.447Z,100113.08
2018-11-07T00:31:41.038Z,100122.03
2018-11-07T00:34:09.421Z,100122.46
2018-11-07T00:36:37.836Z,100112.22
2018-11-07T00:39:07.886Z,100116.48
2018-11-07T00:41:36.389Z,100116.48
2018-11-07T00:44:04.974Z,100116.47
2018-11-07T00:46:33.595Z,100112.20
2018-11-07T00:49:02.187Z,100110.06
2018-11-07T00:51:30.920Z,100113.50
2018-11-07T00:53:59.378Z,100109.64
2018-11-07T00:56:27.796Z,100112.20
2018-11-07T00:58:56.288Z,100120.33
2018-11-07T01:01:24.714Z,100125.02
2018-11-07T01:03:53.161Z,100132.70
2018-11-07T01:06:21.565Z,100136.95
2018-11-07T01:08:50.586Z,100126.70
2018-11-07T01:11:19.008Z,100130.98
2018-11-07T01:13:47.441Z,100125.87
2018-11-07T01:16:15.964Z,100133.13
2018-11-07T01:18:44.395Z,100140.38
2018-11-07T01:21:12.856Z,100139.52
2018-11-07T01:23:41.261Z,100125.43
2018-11-07T01:26:09.646Z,100133.11
2018-11-07T01:28:38.086Z,100134.39
2018-11-07T01:31:06.660Z,100128.41
2018-11-07T01:33:35.156Z,100124.56
2018-11-07T01:36:03.555Z,100133.09
2018-11-07T01:38:31.996Z,100131.81
2018-11-07T01:41:00.441Z,100127.98
2018-11-07T01:43:28.908Z,100136.10
2018-11-07T01:45:57.376Z,100145.91
2018-11-07T01:48:25.792Z,100139.95
2018-11-07T01:50:54.245Z,100133.56
2018-11-07T01:53:22.710Z,100137.82
2018-11-07T01:55:51.103Z,100128.87
2018-11-07T01:58:19.554Z,100133.15
2018-11-07T02:00:48.037Z,100127.58
2018-11-07T02:03:16.496Z,100128.42
2018-11-07T02:05:44.892Z,100125.44
2018-11-07T02:08:13.308Z,100129.72
2018-11-07T02:10:41.769Z,100117.76
2018-11-07T02:13:10.239Z,100117.34
2018-11-07T02:15:38.642Z,100116.92
2018-11-07T02:18:07.279Z,100127.60
2018-11-07T02:20:35.728Z,100133.13
2018-11-07T02:23:04.173Z,100140.38
2018-11-07T02:25:32.562Z,100142.52
2018-11-07T02:28:01.001Z,100138.68
2018-11-07T02:30:29.442Z,100138.69
2018-11-07T02:32:57.832Z,100127.16
2018-11-07T02:35:26.254Z,100122.05
2018-11-07T02:37:54.659Z,100125.44
2018-11-07T02:40:23.049Z,100128.43
2018-11-07T02:42:51.460Z,100113.90
2018-11-07T02:45:19.937Z,100126.30
2018-11-07T02:47:48.352Z,100126.70
2018-11-07T02:50:16.782Z,100124.99
2018-11-07T02:52:45.180Z,100122.40
2018-11-07T02:55:13.604Z,100127.09
2018-11-07T02:57:41.996Z,100125.81
2018-11-07T03:00:12.419Z,100121.55
2018-11-07T03:02:40.919Z,100126.24
2018-11-07T03:05:09.879Z,100121.13
2018-11-07T03:07:39.488Z,100121.55
2018-11-07T03:10:10.376Z,100132.64
2018-11-07T03:12:38.929Z,100122.41
2018-11-07T03:15:07.661Z,100120.70
2018-11-07T03:17:36.154Z,100126.21
2018-11-07T03:20:04.754Z,100122.80
2018-11-07T03:22:33.175Z,100124.08
2018-11-07T03:25:01.562Z,100112.56
2018-11-07T03:27:29.988Z,100115.55
2018-11-07T03:29:58.415Z,100117.68
2018-11-07T03:32:26.822Z,100115.55
2018-11-07T03:34:55.245Z,100114.27
2018-11-07T03:37:23.652Z,100110.86
2018-11-07T03:39:52.169Z,100102.75
2018-11-07T03:42:20.456Z,100095.50
2018-11-07T03:44:48.861Z,100095.08
2018-11-07T03:47:17.257Z,100097.64
2018-11-07T03:49:45.660Z,100096.78
2018-11-07T03:52:14.085Z,100103.18
2018-11-07T03:54:42.527Z,100099.77
2018-11-07T03:57:12.093Z,100100.20
2018-11-07T03:59:40.552Z,100096.36
2018-11-07T04:02:08.951Z,100106.59
2018-11-07T04:04:37.361Z,100097.20
2018-11-07T04:07:06.193Z,100099.77
2018-11-07T04:09:34.650Z,100116.41
2018-11-07T04:12:03.082Z,100103.61
2018-11-07T04:14:31.507Z,100110.00
2018-11-07T04:16:59.917Z,100110.86
2018-11-07T04:19:28.968Z,100100.63
2018-11-07T04:21:57.467Z,100097.64
2018-11-07T04:24:25.863Z,100107.02
2018-11-07T04:26:54.252Z,100097.64
2018-11-07T04:29:22.656Z,100101.05
2018-11-07T04:31:51.064Z,100094.62
2018-11-07T04:34:19.473Z,100091.20
2018-11-07T04:36:47.906Z,100096.32
2018-11-07T04:39:16.360Z,100087.80
2018-11-07T04:41:44.725Z,100086.95
2018-11-07T04:44:13.130Z,100086.52
2018-11-07T04:46:41.511Z,100083.11
2018-11-07T04:49:09.982Z,100086.52
2018-11-07T04:51:38.436Z,100081.39
2018-11-07T04:54:06.872Z,100083.53
2018-11-07T04:56:35.256Z,100043.38
2018-11-07T05:01:31.076Z,100079.27
2018-11-07T05:03:59.490Z,100081.82
2018-11-07T05:06:27.873Z,100080.55
2018-11-07T05:08:56.274Z,100083.09
2018-11-07T05:11:24.739Z,100094.61
2018-11-07T05:13:53.129Z,100093.33
2018-11-07T05:16:21.557Z,100096.28
2018-11-07T05:18:50.044Z,100093.30
2018-11-07T05:21:18.436Z,100102.24
2018-11-07T05:23:46.848Z,100113.32
2018-11-07T05:26:15.278Z,100117.16
2018-11-07T05:28:43.672Z,100127.81
2018-11-07T05:31:12.068Z,100124.41
2018-11-07T05:33:40.526Z,100118.44
2018-11-07T05:36:08.981Z,100113.31
2018-11-07T05:38:37.398Z,100113.75
2018-11-07T05:41:06.020Z,100106.92
2018-11-07T05:43:34.423Z,100101.38
2018-11-07T05:46:02.842Z,100094.98
2018-11-07T05:48:31.264Z,100090.72
2018-11-07T05:50:59.651Z,100096.69
2018-11-07T05:53:28.092Z,100088.17
2018-11-07T05:55:56.534Z,100083.91
2018-11-07T05:58:24.955Z,100085.19
2018-11-07T06:00:53.430Z,100095.41
2018-11-07T06:03:21.859Z,100106.49
2018-11-07T06:05:50.274Z,100105.64
2018-11-07T06:08:18.677Z,100116.25
2018-11-07T06:10:47.134Z,100109.44
2018-11-07T06:13:15.567Z,100102.19
2018-11-07T06:15:44.084Z,100102.19
2018-11-07T06:18:12.496Z,100102.61
2018-11-07T06:20:41.049Z,100100.47
2018-11-07T06:23:09.513Z,100100.47
2018-11-07T06:25:37.993Z,100098.77
2018-11-07T06:28:06.403Z,100095.79
2018-11-07T06:30:34.838Z,100099.62
2018-11-07T06:33:03.261Z,100106.43
2018-11-07T06:35:31.642Z,100106.39
2018-11-07T06:38:00.089Z,100117.88
2018-11-07T06:40:29.230Z,100121.28
2018-11-07T06:42:57.679Z,100136.19
2018-11-07T06:45:26.187Z,100127.23
2018-11-07T06:47:55.496Z,100132.34
2018-11-07T06:50:23.947Z,100139.16
2018-11-07T06:52:52.390Z,100143.83
2018-11-07T06:55:20.842Z,100140.81
2018-11-07T06:57:49.251Z,100138.72
2018-11-07T07:00:18.208Z,100139.14
2018-11-07T07:02:47.743Z,100135.75
2018-11-07T07:05:16.478Z,100140.45
2018-11-07T07:07:44.906Z,100131.51
2018-11-07T07:10:15.692Z,100134.07
2018-11-07T07:12:44.110Z,100132.84
2018-11-07T07:15:14.163Z,100133.28
2018-11-07T07:17:42.791Z,100133.70
2018-11-07T07:20:13.855Z,100139.27
2018-11-07T07:22:42.984Z,100158.49
2018-11-07T07:25:12.514Z,100155.92
2018-11-07T07:27:41.566Z,100163.17
2018-11-07T07:30:12.850Z,100169.98
2018-11-07T07:32:43.480Z,100169.15
2018-11-07T07:35:12.454Z,100170.44
2018-11-07T07:37:40.905Z,100165.33
2018-11-07T07:40:10.955Z,100164.95
2018-11-07T07:42:40.392Z,100167.09
2018-11-07T07:45:11.151Z,100172.20
2018-11-07T07:47:40.114Z,100167.52
2018-11-07T07:50:10.381Z,100169.23
2018-11-07T07:52:38.955Z,100164.96
2018-11-07T07:55:07.984Z,100168.38
2018-11-07T07:57:36.847Z,100164.55
2018-11-07T08:00:10.258Z,100163.73
2018-11-07T08:02:39.031Z,100158.61
2018-11-07T08:05:07.529Z,100159.47
2018-11-07T08:07:35.953Z,100156.05
2018-11-07T08:10:05.992Z,100159.94
2018-11-07T08:12:34.417Z,100161.22
2018-11-07T08:15:02.870Z,100169.75
2018-11-07T08:17:31.306Z,100171.45
2018-11-07T08:19:59.701Z,100169.75
2018-11-07T08:22:28.189Z,100169.32
2018-11-07T08:24:56.621Z,100158.66
2018-11-07T08:27:25.141Z,100154.03
2018-11-07T08:29:53.618Z,100154.03
2018-11-07T08:32:22.203Z,100143.78
2018-11-07T08:34:50.692Z,100145.49
2018-11-07T08:37:19.268Z,100138.69
2018-11-07T08:39:47.652Z,100146.38
2018-11-07T08:42:16.193Z,100144.23
2018-11-07T08:44:44.602Z,100142.09
2018-11-07T08:47:13.040Z,100135.69
2018-11-07T08:49:41.518Z,100142.09
2018-11-07T08:52:10.047Z,100138.22
2018-11-07T08:54:38.468Z,100136.54
2018-11-07T08:57:07.047Z,100130.56
2018-11-07T08:59:35.538Z,100139.95
2018-11-07T09:02:04.010Z,100140.39
2018-11-07T09:04:32.421Z,100148.91
2018-11-07T09:07:00.829Z,100151.88
2018-11-07T09:09:29.252Z,100156.16
2018-11-07T09:11:57.697Z,100159.58
2018-11-07T09:14:26.121Z,100155.73
2018-11-07T09:16:54.553Z,100159.14
2018-11-07T09:19:22.976Z,100159.16
2018-11-07T09:21:51.645Z,100160.43
2018-11-07T09:24:20.121Z,100162.98
2018-11-07T09:26:48.554Z,100166.82
2018-11-07T09:29:17.052Z,100155.69
2018-11-07T09:31:45.401Z,100155.70
2018-11-07T09:34:13.889Z,100160.78
2018-11-07T09:36:42.383Z,100156.07
2018-11-07T09:39:11.502Z,100156.04
2018-11-07T09:41:39.982Z,100148.77
2018-11-07T09:44:08.410Z,100149.23
2018-11-07T09:46:36.917Z,100149.19
2018-11-07T09:49:05.390Z,100141.49
2018-11-07T09:51:33.849Z,100144.45
2018-11-07T09:54:02.973Z,100148.71
2018-11-07T09:56:31.360Z,100148.64
2018-11-07T09:59:00.230Z,100148.64
2018-11-07T10:01:28.646Z,100144.36
2018-11-07T10:03:57.140Z,100143.04
2018-11-07T10:06:25.611Z,100151.55
2018-11-07T10:08:54.098Z,100145.53
2018-11-07T10:11:22.557Z,100154.11
2018-11-07T10:13:50.997Z,100152.39
2018-11-07T10:16:19.494Z,100150.28
2018-11-07T10:18:47.934Z,100158.81
2018-11-07T10:21:16.353Z,100149.84
2018-11-07T10:23:44.781Z,100142.98
2018-11-07T10:26:13.258Z,100139.11
2018-11-07T10:28:41.997Z,100141.08
2018-11-07T10:31:10.134Z,100133.70
2018-11-07T10:33:38.586Z,100134.49
2018-11-07T10:36:07.038Z,100131.00
2018-11-07T10:38:35.603Z,100127.53
2018-11-07T10:41:04.028Z,100128.78
2018-11-07T10:43:32.453Z,100120.64
2018-11-07T10:46:00.913Z,100121.48
2018-11-07T10:48:29.341Z,100121.39
2018-11-07T10:50:57.789Z,100125.63
2018-11-07T10:53:26.276Z,100119.20
2018-11-07T10:55:54.706Z,100123.13
2018-11-07T10:58:23.090Z,100124.09
2018-11-07T11:00:56.918Z,100121.66
2018-11-07T11:03:30.608Z,100122.55
2018-11-07T11:05:59.222Z,100117.80
2018-11-07T11:08:27.706Z,100119.02
2018-11-07T11:10:56.146Z,100114.23
2018-11-07T11:13:25.928Z,100118.39
2018-11-07T11:15:54.355Z,100110.94
2018-11-07T11:18:22.809Z,100119.99
2018-11-07T11:20:51.281Z,100112.28
2018-11-07T11:23:19.798Z,100105.28
2018-11-07T11:25:49.365Z,100095.70
2018-11-07T11:28:17.755Z,100094.40
2018-11-07T11:30:46.382Z,100093.11
2018-11-07T11:33:14.816Z,100093.86
2018-11-07T11:35:43.242Z,100089.22
2018-11-07T11:38:11.705Z,100091.64
2018-11-07T11:40:40.163Z,100094.55
2018-11-07T11:43:08.844Z,100087.27
2018-11-07T11:45:37.324Z,100087.89
2018-11-07T11:48:05.817Z,100085.45
2018-11-07T11:50:34.247Z,100085.03
2018-11-07T11:53:02.712Z,100083.66
2018-11-07T11:55:31.144Z,100084.01
2018-11-07T11:57:59.587Z,100078.65
2018-11-07T12:00:28.067Z,100082.20
2018-11-07T12:02:56.563Z,100082.56
2018-11-07T12:05:25.017Z,100081.00
2018-11-07T12:07:53.453Z,100084.63
2018-11-07T12:10:23.203Z,100072.92
2018-11-07T12:12:52.854Z,100077.37
2018-11-07T12:15:22.620Z,100076.86
2018-11-07T12:17:51.112Z,100076.86
2018-11-07T12:20:19.645Z,100080.78
2018-11-07T12:22:48.142Z,100077.86
2018-11-07T12:25:17.298Z,100085.23
2018-11-07T12:27:45.893Z,100082.17
2018-11-07T12:30:17.418Z,100070.88
2018-11-07T12:32:46.928Z,100070.42
2018-11-07T12:35:16.153Z,100072.91
2018-11-07T12:37:44.567Z,100069.82
2018-11-07T12:40:13.493Z,100065.27
2018-11-07T12:42:42.009Z,100066.97
2018-11-07T12:45:12.058Z,100058.03
2018-11-07T12:47:40.784Z,100062.22
2018-11-07T12:50:12.991Z,100068.77
2018-11-07T12:52:41.423Z,100069.52
2018-11-07T12:55:11.231Z,100065.60
2018-11-07T12:57:39.838Z,100072.73
2018-11-07T13:00:17.381Z,100063.10
2018-11-07T13:02:46.482Z,100076.91
2018-11-07T13:05:16.197Z,100076.59
2018-11-07T13:07:45.635Z,100079.05
2018-11-07T13:10:16.127Z,100082.67
2018-11-07T13:12:45.401Z,100089.77
2018-11-07T13:15:14.432Z,100097.84
2018-11-07T13:17:42.938Z,100108.61
2018-11-07T13:20:13.762Z,100112.53
2018-11-07T13:22:42.946Z,100113.91
2018-11-07T13:25:12.288Z,100112.78
2018-11-07T13:27:40.661Z,100122.22
2018-11-07T13:30:11.478Z,100124.14
2018-11-07T13:32:40.075Z,100127.66
2018-11-07T13:35:09.448Z,100128.75
2018-11-07T13:37:38.823Z,100128.46
2018-11-07T13:40:12.810Z,100132.86
2018-11-07T13:42:41.306Z,100138.83
2018-11-07T13:45:11.723Z,100142.33
2018-11-07T13:47:41.054Z,100151.03
2018-11-07T13:50:10.154Z,100158.83
2018-11-07T13:52:38.592Z,100163.98
2018-11-07T13:55:08.283Z,100162.72
2018-11-07T13:57:36.727Z,100164.97
2018-11-07T14:00:07.589Z,100173.14
2018-11-07T14:02:36.245Z,100172.33
2018-11-07T14:05:05.078Z,100178.80
2018-11-07T14:07:33.540Z,100183.20
2018-11-07T14:10:02.093Z,100182.81
2018-11-07T14:12:30.586Z,100186.73
2018-11-07T14:14:59.032Z,100191.84
2018-11-07T14:17:27.512Z,100193.97
2018-11-07T14:19:56.008Z,100192.69
2018-11-07T14:22:24.458Z,100195.61
2018-11-07T14:24:52.881Z,100193.80
2018-11-07T14:27:21.443Z,100195.94
2018-11-07T14:29:49.866Z,100199.91
2018-11-07T14:32:18.564Z,100195.22
2018-11-07T14:34:47.175Z,100200.38
2018-11-07T14:37:15.570Z,100203.42
2018-11-07T14:39:45.047Z,100200.41
2018-11-07T14:42:13.476Z,100204.71
2018-11-07T14:44:41.952Z,100193.63
2018-11-07T14:47:10.437Z,100202.25
2018-11-07T14:49:38.836Z,100198.44
2018-11-07T14:52:07.317Z,100205.32
2018-11-07T14:54:35.755Z,100208.25
2018-11-07T14:57:04.620Z,100201.00
2018-11-07T14:59:33.061Z,100207.88
2018-11-07T15:02:01.483Z,100203.20
2018-11-07T15:04:29.910Z,100207.52
2018-11-07T15:06:58.324Z,100204.49
2018-11-07T15:09:26.774Z,100209.23
2018-11-07T15:11:55.260Z,100209.75
2018-11-07T15:14:23.666Z,100206.34
2018-11-07T15:16:52.219Z,100211.91
2018-11-07T15:19:20.623Z,100215.38
2018-11-07T15:21:49.065Z,100222.69
2018-11-07T15:24:17.504Z,100227.83
2018-11-07T15:26:45.901Z,100231.69
2018-11-07T15:29:14.345Z,100233.84
2018-11-07T15:31:42.790Z,100241.55
2018-11-07T15:34:12.308Z,100246.30
2018-11-07T15:36:40.765Z,100252.34
2018-11-07T15:39:10.592Z,100255.05
2018-11-07T15:41:39.060Z,100256.83
2018-11-07T15:44:07.481Z,100263.33
2018-11-07T15:46:35.902Z,100262.97
2018-11-07T15:49:04.450Z,100263.42
2018-11-07T15:51:38.009Z,100263.89
2018-11-07T15:54:07.151Z,100258.80
2018-11-07T15:56:35.959Z,100263.52
2018-11-07T15:59:04.549Z,100263.56
2018-11-07T16:01:32.998Z,100264.01
2018-11-07T16:04:02.356Z,100265.28
2018-11-07T16:06:30.810Z,100269.58
2018-11-07T16:09:00.235Z,100271.73
2018-11-07T16:11:29.703Z,100271.33
2018-11-07T16:13:58.109Z,100279.91
2018-11-07T16:16:27.484Z,100288.48
2018-11-07T16:18:55.979Z,100286.34
2018-11-07T16:21:24.430Z,100283.77
2018-11-07T16:23:53.037Z,100290.19
2018-11-07T16:26:21.616Z,100287.21
2018-11-07T16:28:50.114Z,100296.20
2018-11-07T16:31:19.497Z,100292.79
2018-11-07T16:33:47.950Z,100296.64
2018-11-07T16:36:16.433Z,100296.65
2018-11-07T16:38:44.937Z,100294.95
2018-11-07T16:41:13.410Z,100300.92
2018-11-07T16:43:41.885Z,100299.21
2018-11-07T16:46:10.391Z,100306.92
2018-11-07T16:48:38.873Z,100302.66
2018-11-07T16:51:07.281Z,100300.52
2018-11-07T16:53:35.701Z,100303.95
2018-11-07T16:56:04.211Z,100313.36
2018-11-07T16:58:32.771Z,100312.08
2018-11-07T17:01:01.285Z,100320.64
2018-11-07T17:03:29.702Z,100321.50
2018-11-07T17:05:58.189Z,100326.64
2018-11-07T17:08:26.666Z,100326.62
2018-11-07T17:10:55.235Z,100330.06
2018-11-07T17:13:23.677Z,100334.77
2018-11-07T17:15:52.212Z,100338.59
2018-11-07T17:18:20.577Z,100342.47
2018-11-07T17:20:49.001Z,100343.33
2018-11-07T17:23:18.524Z,100349.31
2018-11-07T17:25:45.904Z,100340.28
2018-11-07T17:28:14.325Z,100351.45
2018-11-07T17:30:42.794Z,100362.57
2018-11-07T17:33:11.218Z,100363.39
2018-11-07T17:35:39.662Z,100373.66
2018-11-07T17:38:08.142Z,100369.81
2018-11-07T17:40:36.584Z,100374.52
2018-11-07T17:43:05.237Z,100379.20
2018-11-07T17:45:33.677Z,100379.20
2018-11-07T17:48:02.224Z,100380.48
2018-11-07T17:50:30.622Z,100388.19
2018-11-07T17:52:59.099Z,100392.03
2018-11-07T17:55:27.583Z,100396.77
2018-11-07T17:57:56.134Z,100396.33
2018-11-07T18:00:29.988Z,100395.94
2018-11-07T18:02:58.397Z,100387.37
2018-11-07T18:05:26.861Z,100392.48
2018-11-07T18:07:55.302Z,100397.19
2018-11-07T18:10:23.825Z,100393.33
2018-11-07T18:12:52.262Z,100398.48
2018-11-07T18:15:20.829Z,100406.61
2018-11-07T18:17:49.290Z,100408.75
2018-11-07T18:20:18.373Z,100410.02
2018-11-07T18:22:46.836Z,100418.15
2018-11-07T18:25:16.948Z,100415.58
2018-11-07T18:27:45.417Z,100421.56
2018-11-07T18:30:15.128Z,100426.68
2018-11-07T18:32:44.254Z,100433.09
2018-11-07T18:35:14.278Z,100436.10
2018-11-07T18:37:42.838Z,100440.82
2018-11-07T18:40:12.713Z,100444.26
2018-11-07T18:42:41.549Z,100435.27
2018-11-07T18:45:11.014Z,100440.83
2018-11-07T18:47:40.702Z,100445.97
2018-11-07T18:50:10.889Z,100449.41
2018-11-07T18:52:39.242Z,100443.81
2018-11-07T18:55:09.786Z,100450.23
2018-11-07T18:57:38.229Z,100457.52
2018-11-07T19:00:09.901Z,100460.50
2018-11-07T19:02:38.464Z,100457.52
2018-11-07T19:05:07.541Z,100463.93
2018-11-07T19:07:36.377Z,100460.07
2018-11-07T19:10:09.750Z,100462.23
2018-11-07T19:12:38.367Z,100460.95
2018-11-07T19:15:10.614Z,100474.64
2018-11-07T19:17:39.384Z,100475.50
2018-11-07T19:20:08.725Z,100483.20
2018-11-07T19:22:37.202Z,100493.47
2018-11-07T19:25:07.119Z,100490.04
2018-11-07T19:27:35.934Z,100495.61
2018-11-07T19:30:04.752Z,100498.61
2018-11-07T19:32:33.250Z,100502.02
2018-11-07T19:35:01.698Z,100498.61
2018-11-07T19:37:30.136Z,100502.45
2018-11-07T19:39:58.617Z,100505.42
2018-11-07T19:42:27.084Z,100510.56
2018-11-07T19:44:55.539Z,100510.56
2018-11-07T19:47:24.013Z,100511.84
2018-11-07T19:49:52.515Z,100519.55
2018-11-07T19:52:20.934Z,100518.70
2018-11-07T19:54:49.398Z,100521.26
2018-11-07T19:57:17.867Z,100522.09
2018-11-07T19:59:46.539Z,100531.50
2018-11-07T20:02:14.968Z,100540.51
2018-11-07T20:04:43.416Z,100537.94
2018-11-07T20:07:11.842Z,100535.80
2018-11-07T20:09:40.424Z,100534.09
2018-11-07T20:12:08.906Z,100537.94
2018-11-07T20:14:37.371Z,100538.80
2018-11-07T20:17:06.316Z,100540.50
2018-11-07T20:19:34.646Z,100544.78
2018-11-07T20:22:03.693Z,100552.48
2018-11-07T20:24:32.170Z,100552.05
2018-11-07T20:27:00.642Z,100557.61
2018-11-07T20:29:29.120Z,100558.05
2018-11-07T20:31:57.641Z,100552.09
2018-11-07T20:34:26.181Z,100551.20
2018-11-07T20:36:54.650Z,100558.05
2018-11-07T20:39:23.089Z,100560.61
2018-11-07T20:41:51.587Z,100562.36
2018-11-07T20:44:20.054Z,100564.92
2018-11-07T20:46:48.501Z,100564.03
2018-11-07T20:49:16.983Z,100575.59
2018-11-07T20:51:45.828Z,100578.16
2018-11-07T20:54:14.329Z,100578.16
2018-11-07T20:56:43.037Z,100580.72
2018-11-07T20:59:11.468Z,100580.72
2018-11-07T21:01:39.963Z,100584.57
2018-11-07T21:04:08.380Z,100596.55
2018-11-07T21:06:36.858Z,100595.27
2018-11-07T21:09:08.293Z,100605.96
2018-11-07T21:11:36.795Z,100611.52
2018-11-07T21:14:05.903Z,100611.52
2018-11-07T21:16:34.361Z,100609.81
2018-11-07T21:19:02.895Z,100614.52
2018-11-07T21:21:32.103Z,100606.39
2018-11-07T21:24:00.699Z,100610.23
2018-11-07T21:26:29.217Z,100612.80
2018-11-07T21:28:57.709Z,100613.23
2018-11-07T21:31:26.184Z,100618.80
2018-11-07T21:33:54.757Z,100626.92
2018-11-07T21:36:23.242Z,100623.50
2018-11-07T21:38:51.817Z,100627.78
2018-11-07T21:41:20.312Z,100630.34
2018-11-07T21:43:48.826Z,100633.77
2018-11-07T21:46:17.342Z,100641.03
2018-11-07T21:48:45.734Z,100642.32
2018-11-07T21:51:14.200Z,100646.17
2018-11-07T21:53:42.691Z,100635.90
2018-11-07T21:56:11.163Z,100638.00
2018-11-07T21:58:39.594Z,100637.11
2018-11-07T22:01:08.015Z,100642.23
2018-11-07T22:03:36.497Z,100641.81
2018-11-07T22:06:05.127Z,100647.80
2018-11-07T22:08:33.591Z,100648.65
2018-11-07T22:11:02.068Z,100649.08
2018-11-07T22:13:30.450Z,100651.22
2018-11-07T22:15:58.934Z,100649.94
2018-11-07T22:18:27.376Z,100650.80
2018-11-07T22:20:55.796Z,100652.94
2018-11-07T22:23:24.237Z,100649.12
2018-11-07T22:25:52.696Z,100659.35
2018-11-07T22:28:21.137Z,100667.47
2018-11-07T22:30:49.654Z,100672.59
2018-11-07T22:33:18.135Z,100673.02
2018-11-07T22:35:46.537Z,100672.16
2018-11-07T22:38:14.960Z,100676.44
2018-11-07T22:40:43.394Z,100679.42
2018-11-07T22:43:11.849Z,100678.98
2018-11-07T22:45:40.261Z,100681.52
2018-11-07T22:48:08.701Z,100687.06
2018-11-07T22:50:37.153Z,100697.32
2018-11-07T22:53:05.667Z,100701.59
2018-11-07T22:55:34.190Z,100702.88
2018-11-07T22:58:02.625Z,100683.20
2018-11-07T23:00:36.346Z,100697.77
2018-11-07T23:03:05.137Z,100696.95
2018-11-07T23:05:33.595Z,100698.23
2018-11-07T23:08:02.055Z,100699.52
2018-11-07T23:10:30.556Z,100706.32
2018-11-07T23:12:59.015Z,100699.91
2018-11-07T23:15:32.618Z,100698.23
2018-11-07T23:18:01.021Z,100703.37
2018-11-07T23:20:29.421Z,100696.91
2018-11-07T23:22:57.826Z,100695.61
2018-11-07T23:25:26.272Z,100708.45
2018-11-07T23:27:54.733Z,100712.72
2018-11-07T23:30:23.165Z,100717.85
2018-11-07T23:32:51.609Z,100713.58
2018-11-07T23:35:20.013Z,100716.98
2018-11-07T23:37:48.469Z,100715.70
2018-11-07T23:40:16.837Z,100719.96
2018-11-07T23:42:45.233Z,100731.06
2018-11-07T23:45:13.636Z,100741.70
2018-11-07T23:47:42.053Z,100753.66
2018-11-07T23:50:10.528Z,100760.91
2018-11-07T23:52:44.413Z,100761.77
2018-11-07T23:55:12.864Z,100766.06
2018-11-07T23:57:41.285Z,100767.35
